Impacts METAR Board
IDs:

KMEM - Memphis Intl, TN, US

Updated at: 0000 UTC 27 Apr 2018
Potential Impact None Slight Moderate High
Time 26/12Z 26/13Z 26/14Z 26/15Z 26/16Z 26/17Z 26/18Z 26/19Z 26/20Z 26/21Z 26/22Z 26/23Z 27/00Z
Temp53 53 54 54 55 58 60 61 62 61 62 62 62
Dewpt53 53 54 54 55 56 57 57 56 56 54 54 53
Altim29.83 29.83 29.84 29.85 29.84 29.87 29.87 29.88 29.88 29.87 29.89 29.90 29.90
VIS5 2.5 2 2 2.5 10 8 10 10 9 10 10 10
CIG11 36 5 7 7 10 13 23 20 35 23 65 75
CoverOVCOVCOVCOVCOVCOVCOVCOVCOVCBKNBKNBKNBKN
FltCatMVFRIFRIFRIFRIFRMVFRMVFRMVFRMVFRVFRMVFRVFRVFR
WXRA BRRA BR+RA BR+RA BRRA BR---RA------------
WDir35035036020350340360330340360340340360
WSpd9 10 13 11 10 7 7 7 11 12 11 6 7
WGst-- -- -- -- -- -- -- -- -- -- -- -- --
Raw hourly METARs
KMEM 261154Z 35009KT 5SM RA BR FEW005 BKN011 OVC041 12/12 A2983 RMK AO2 SLP100 P0019 60056 70070 T01170117 10128 20117 55000 $
KMEM 261254Z 35010KT 2 1/2SM RA BR SCT005 BKN036 OVC060 12/12 A2983 RMK AO2 SLP099 P0029 T01170117 $
KMEM 261354Z 36013KT 2SM +RA BR BKN005 BKN045 OVC060 12/12 A2984 RMK AO2 SLP102 BKN V SCT P0031 T01220122 $
KMEM 261454Z 02011KT 2SM +RA BR BKN007 OVC055 12/12 A2985 RMK AO2 SLP106 BKN V SCT P0040 60100 T01220122 53007 $
KMEM 261554Z 35010KT 2 1/2SM RA BR BKN007 OVC050 13/13 A2984 RMK AO2 SLP104 BKN V SCT P0033 T01280128 $
KMEM 261654Z 34007KT 10SM BKN010 OVC015 14/13 A2987 RMK AO2 RAE44 SLP115 VCSH P0003 T01440133 $
KMEM 261754Z 36007KT 8SM -RA BKN013 BKN018 OVC070 16/14 A2987 RMK AO2 DZB27E51RAB51 SLP115 P0000 60136 T01560139 10156 20117 51011
KMEM 261854Z 33007KT 10SM SCT017 BKN023 OVC070 16/14 A2988 RMK AO2 RAE12B23E36DZB16E23 SLP116 VCSH P0000 T01610139
KMEM 261954Z 34011KT 10SM BKN020 BKN030 OVC038 17/13 A2988 RMK AO2 SLP115 T01670133
KMEM 262054Z 36012KT 9SM SCT014 BKN035 BKN046 16/13 A2987 RMK AO2 RAB10E25 SLP114 P0000 60000 T01610133 58001
KMEM 262205Z 34011KT 10SM BKN023 BKN045 17/12 A2989 RMK AO2 T01670122
KMEM 262254Z 34006KT 10SM FEW029 BKN065 BKN090 17/12 A2990 RMK AO2 SLP124 T01670122
KMEM 262354Z 36007KT 10SM FEW029 SCT045 BKN075 17/12 A2990 RMK AO2 SLP123 60000 T01670117 10178 20150 50009



Page loaded:  00:58 UTC  |   05:58 PM Pacific  |   06:58 PM Mountain  |   07:58 PM Central  |   08:58 PM Eastern

 

ADVISORIES

FORECASTS

FORECASTS

OBSERVATIONS

USER TOOLS

ABOUT US